createdAt,value
2022-09-30T00:01:57.307Z,32.95
2022-09-30T00:04:43.089Z,36.40
2022-09-30T00:07:28.393Z,38.17
2022-09-30T00:10:15.002Z,47.97
2022-09-30T00:13:00.261Z,33.22
2022-09-30T00:15:47.285Z,41.40
2022-09-30T00:18:33.771Z,43.65
2022-09-30T00:21:19.213Z,42.17
2022-09-30T00:24:05.948Z,35.83
2022-09-30T00:26:53.275Z,35.10
2022-09-30T00:29:38.852Z,27.90
2022-09-30T00:32:24.196Z,24.88
2022-09-30T00:35:09.597Z,51.05
2022-09-30T00:37:55.224Z,55.13
2022-09-30T00:40:41.066Z,38.05
2022-09-30T00:43:53.444Z,35.15
2022-09-30T00:46:44.641Z,30.00
2022-09-30T00:49:30.464Z,21.75
2022-09-30T00:52:15.976Z,28.70
2022-09-30T00:55:05.326Z,29.05
2022-09-30T00:57:51.060Z,36.15
2022-09-30T01:00:37.126Z,29.02
2022-09-30T01:03:23.451Z,20.95
2022-09-30T01:06:10.119Z,32.95
2022-09-30T01:08:55.518Z,34.83
2022-09-30T01:11:41.422Z,28.55
2022-09-30T01:14:28.448Z,33.45
2022-09-30T01:18:02.792Z,28.65
2022-09-30T01:21:07.755Z,36.08
2022-09-30T01:23:56.715Z,31.80
2022-09-30T01:27:05.472Z,33.85
2022-09-30T01:30:05.726Z,36.28
2022-09-30T01:33:01.007Z,40.05
2022-09-30T01:36:10.444Z,29.08
2022-09-30T01:39:14.786Z,30.35
2022-09-30T01:42:18.323Z,30.90
2022-09-30T01:45:29.900Z,33.30
2022-09-30T01:48:34.099Z,39.88
2022-09-30T01:51:32.511Z,47.22
2022-09-30T01:54:33.017Z,43.28
2022-09-30T01:57:48.778Z,31.67
2022-09-30T02:00:38.617Z,33.65
2022-09-30T02:03:42.312Z,37.25
2022-09-30T02:06:38.049Z,26.90
2022-09-30T02:09:34.070Z,37.35
2022-09-30T02:12:23.881Z,36.08
2022-09-30T02:15:14.989Z,30.08
2022-09-30T02:18:20.286Z,35.55
2022-09-30T02:21:08.425Z,28.95
2022-09-30T02:24:00.515Z,39.08
2022-09-30T02:26:49.136Z,38.03
2022-09-30T02:29:39.568Z,39.58
2022-09-30T02:32:31.084Z,39.33
2022-09-30T02:35:35.905Z,35.55
2022-09-30T02:38:31.401Z,44.50
2022-09-30T02:41:23.374Z,34.10
2022-09-30T02:44:09.626Z,34.40
2022-09-30T02:47:34.246Z,37.05
2022-09-30T02:50:33.466Z,33.80
2022-09-30T02:53:33.471Z,35.72
2022-09-30T02:56:31.378Z,27.05
2022-09-30T02:59:17.149Z,28.48
2022-09-30T03:02:03.259Z,28.50
2022-09-30T03:04:51.284Z,22.63
2022-09-30T03:07:37.790Z,24.73
2022-09-30T03:10:24.385Z,22.77
2022-09-30T03:13:21.735Z,21.33
2022-09-30T03:16:22.133Z,17.48
2022-09-30T03:19:29.149Z,24.83
2022-09-30T03:22:33.171Z,18.25
2022-09-30T03:25:33.438Z,18.83
2022-09-30T03:28:42.923Z,22.38
2022-09-30T03:31:40.685Z,16.48
2022-09-30T03:34:52.551Z,18.67
2022-09-30T03:37:45.496Z,23.77
2022-09-30T03:40:37.316Z,17.33
2022-09-30T03:43:31.957Z,18.35
2022-09-30T03:46:23.496Z,21.30
2022-09-30T03:49:14.684Z,18.52
2022-09-30T03:52:05.282Z,17.15
2022-09-30T03:54:53.778Z,15.38
2022-09-30T03:57:39.378Z,23.30
2022-09-30T04:00:24.997Z,21.45
2022-09-30T04:03:10.399Z,20.65
2022-09-30T04:05:55.924Z,21.33
2022-09-30T04:08:41.178Z,23.50
2022-09-30T04:11:26.629Z,20.67
2022-09-30T04:14:12.085Z,17.60
2022-09-30T04:16:58.279Z,15.90
2022-09-30T04:19:44.201Z,25.95
2022-09-30T04:22:29.394Z,20.27
2022-09-30T04:25:14.846Z,24.83
2022-09-30T04:28:00.274Z,21.83
2022-09-30T04:30:45.715Z,22.70
2022-09-30T04:33:31.370Z,22.90
2022-09-30T04:36:17.463Z,18.95
2022-09-30T04:39:02.897Z,22.75
2022-09-30T04:41:49.011Z,19.30
2022-09-30T04:44:35.391Z,24.48
2022-09-30T04:47:20.708Z,20.35
2022-09-30T04:50:06.400Z,30.67
2022-09-30T04:52:52.493Z,24.33
2022-09-30T04:55:38.723Z,19.83
2022-09-30T04:58:24.873Z,24.10
2022-09-30T05:01:19.509Z,21.05
2022-09-30T05:04:05.286Z,16.90
2022-09-30T05:06:50.766Z,21.70
2022-09-30T05:09:36.524Z,39.42
2022-09-30T05:12:22.091Z,38.00
2022-09-30T05:15:08.704Z,29.85
2022-09-30T05:17:54.539Z,25.65
2022-09-30T05:20:40.361Z,17.83
2022-09-30T05:23:27.735Z,19.38
2022-09-30T05:26:13.661Z,19.05
2022-09-30T05:28:59.081Z,19.27
2022-09-30T05:31:44.507Z,19.60
2022-09-30T05:34:30.343Z,17.33
2022-09-30T05:37:15.836Z,22.73
2022-09-30T05:40:01.214Z,22.60
2022-09-30T05:42:47.482Z,19.40
2022-09-30T05:45:32.968Z,16.83
2022-09-30T05:48:18.303Z,17.85
2022-09-30T05:51:03.880Z,15.60
2022-09-30T05:53:49.258Z,16.63
2022-09-30T05:56:34.776Z,17.23
2022-09-30T05:59:20.137Z,15.50
2022-09-30T06:02:05.964Z,19.52
2022-09-30T06:04:51.410Z,16.30
2022-09-30T06:07:37.986Z,15.57
2022-09-30T06:10:24.226Z,14.77
2022-09-30T06:13:10.263Z,13.73
2022-09-30T06:16:00.288Z,18.33
2022-09-30T06:18:45.984Z,11.77
2022-09-30T06:21:32.133Z,14.60
2022-09-30T06:24:17.760Z,18.00
2022-09-30T06:27:03.122Z,13.50
2022-09-30T06:29:48.740Z,16.15
2022-09-30T06:32:34.261Z,15.20
2022-09-30T06:35:20.599Z,16.13
2022-09-30T06:38:06.156Z,12.40
2022-09-30T06:40:51.661Z,12.60
2022-09-30T06:43:49.095Z,14.93
2022-09-30T06:46:53.014Z,9.20
2022-09-30T06:49:48.126Z,10.52
2022-09-30T06:52:35.131Z,8.38
2022-09-30T06:55:22.649Z,7.55
2022-09-30T06:58:13.809Z,16.13
2022-09-30T07:01:06.978Z,12.90
2022-09-30T07:03:57.858Z,14.98
2022-09-30T07:06:43.997Z,11.63
2022-09-30T07:09:29.823Z,11.88
2022-09-30T07:12:15.191Z,9.75
2022-09-30T07:15:00.618Z,8.90
2022-09-30T07:17:51.851Z,9.90
2022-09-30T07:20:37.467Z,9.68
2022-09-30T07:23:27.142Z,9.73
2022-09-30T07:26:22.678Z,10.07
2022-09-30T07:29:08.337Z,9.27
2022-09-30T07:31:54.369Z,9.20
2022-09-30T07:34:44.317Z,10.40
2022-09-30T07:37:36.032Z,7.30
2022-09-30T07:40:21.875Z,8.60
2022-09-30T07:43:07.713Z,9.75
2022-09-30T07:45:55.792Z,10.95
2022-09-30T07:48:44.872Z,12.00
2022-09-30T07:51:36.775Z,9.15
2022-09-30T07:54:25.302Z,12.00
2022-09-30T07:57:11.739Z,12.50
2022-09-30T07:59:57.847Z,7.90
2022-09-30T08:02:43.159Z,9.90
2022-09-30T08:05:28.637Z,10.18
2022-09-30T08:08:16.032Z,12.00
2022-09-30T08:11:02.331Z,10.88
2022-09-30T08:13:52.616Z,13.68
2022-09-30T08:16:37.948Z,12.02
2022-09-30T08:19:24.786Z,11.02
2022-09-30T08:22:10.814Z,12.35
2022-09-30T08:24:56.044Z,16.10
2022-09-30T08:27:41.505Z,14.05
2022-09-30T08:30:27.092Z,14.13
2022-09-30T08:33:12.491Z,21.45
2022-09-30T08:36:12.441Z,18.27
2022-09-30T08:38:58.638Z,17.80
2022-09-30T08:42:19.185Z,15.32
2022-09-30T08:44:52.268Z,12.00
2022-09-30T08:47:48.719Z,13.60
2022-09-30T08:50:37.794Z,14.73
2022-09-30T08:53:11.662Z,13.32
2022-09-30T08:55:45.010Z,17.33
2022-09-30T08:58:21.830Z,17.90
2022-09-30T09:00:53.047Z,21.63
2022-09-30T09:03:20.834Z,18.52
2022-09-30T09:06:01.050Z,17.00
2022-09-30T09:08:52.357Z,22.67
2022-09-30T09:11:43.339Z,20.42
2022-09-30T09:14:40.929Z,17.75
2022-09-30T09:17:31.859Z,21.08
2022-09-30T09:20:15.509Z,18.88
2022-09-30T09:22:45.593Z,18.55
2022-09-30T09:25:19.390Z,21.92
2022-09-30T09:28:16.105Z,15.82
2022-09-30T09:30:54.731Z,17.33
2022-09-30T09:33:27.780Z,16.92
2022-09-30T09:36:19.218Z,17.38
2022-09-30T09:39:27.678Z,15.20
2022-09-30T09:42:07.699Z,14.52
2022-09-30T09:44:45.003Z,14.77
2022-09-30T09:47:17.386Z,16.10
2022-09-30T09:49:58.624Z,14.65
2022-09-30T09:52:43.341Z,11.40
2022-09-30T09:55:12.082Z,17.30
2022-09-30T09:57:40.282Z,12.32
2022-09-30T10:00:27.695Z,11.32
2022-09-30T10:03:23.470Z,11.40
2022-09-30T10:06:03.642Z,14.52
2022-09-30T10:08:33.975Z,10.70
2022-09-30T10:11:18.380Z,11.57
2022-09-30T10:13:45.772Z,11.55
2022-09-30T10:16:25.041Z,10.55
2022-09-30T10:18:52.244Z,9.13
2022-09-30T10:21:25.123Z,9.38
2022-09-30T10:23:52.603Z,13.80
2022-09-30T10:26:22.091Z,10.52
2022-09-30T10:29:02.140Z,9.98
2022-09-30T10:31:38.783Z,11.57
2022-09-30T10:34:25.051Z,9.02
2022-09-30T10:36:53.553Z,11.35
2022-09-30T10:39:27.379Z,10.02
2022-09-30T10:42:08.607Z,9.70
2022-09-30T10:44:49.443Z,13.05
2022-09-30T10:47:19.710Z,12.15
2022-09-30T10:50:00.903Z,11.68
2022-09-30T10:52:31.110Z,9.43
2022-09-30T10:54:59.236Z,11.73
2022-09-30T10:57:31.809Z,13.07
2022-09-30T11:00:00.198Z,10.65
2022-09-30T11:02:56.983Z,12.65
2022-09-30T11:05:24.928Z,12.35
2022-09-30T11:08:02.328Z,10.32
2022-09-30T11:10:51.285Z,9.48
2022-09-30T11:13:29.938Z,14.07
2022-09-30T11:16:15.065Z,11.57
2022-09-30T11:18:56.314Z,9.43
2022-09-30T11:21:29.452Z,9.68
2022-09-30T11:24:05.703Z,13.23
2022-09-30T11:27:02.152Z,9.15
2022-09-30T11:30:01.318Z,9.77
2022-09-30T11:32:59.400Z,10.57
2022-09-30T11:35:48.733Z,14.07
2022-09-30T11:38:33.248Z,11.75
2022-09-30T11:41:17.598Z,8.63
2022-09-30T11:44:05.594Z,7.18
2022-09-30T11:46:55.600Z,11.18
2022-09-30T11:49:55.588Z,9.85
2022-09-30T11:53:00.334Z,11.70
2022-09-30T11:55:57.613Z,8.20
2022-09-30T11:58:41.124Z,10.80
2022-09-30T12:01:30.530Z,11.05
2022-09-30T12:04:08.391Z,9.90
2022-09-30T12:06:44.212Z,9.82
2022-09-30T12:09:22.389Z,10.02
2022-09-30T12:11:52.151Z,13.63
2022-09-30T12:14:42.839Z,11.48
2022-09-30T12:17:32.118Z,8.88
2022-09-30T12:20:07.273Z,9.05
2022-09-30T12:22:42.353Z,7.85
2022-09-30T12:25:21.605Z,7.35
2022-09-30T12:28:24.023Z,8.38
2022-09-30T12:31:00.170Z,7.60
2022-09-30T12:34:04.467Z,7.93
2022-09-30T12:36:43.538Z,11.10
2022-09-30T12:39:41.763Z,8.43
2022-09-30T12:43:05.897Z,17.10
2022-09-30T12:46:14.747Z,10.27
2022-09-30T12:48:44.363Z,9.90
2022-09-30T12:51:31.215Z,9.00
2022-09-30T12:54:13.838Z,13.02
2022-09-30T12:56:46.181Z,9.63
2022-09-30T12:59:14.445Z,10.70
2022-09-30T13:01:42.516Z,11.00
2022-09-30T13:04:16.887Z,10.45
2022-09-30T13:06:46.460Z,11.10
2022-09-30T13:09:16.101Z,10.85
2022-09-30T13:11:55.178Z,10.10
2022-09-30T13:14:26.342Z,14.13
2022-09-30T13:17:06.617Z,10.73
2022-09-30T13:19:41.564Z,11.23
2022-09-30T13:22:20.675Z,13.95
2022-09-30T13:24:57.663Z,14.68
2022-09-30T13:27:43.319Z,12.90
2022-09-30T13:30:13.308Z,12.70
2022-09-30T13:32:43.648Z,12.45
2022-09-30T13:35:35.585Z,13.30
2022-09-30T13:41:03.296Z,15.45
2022-09-30T13:43:30.471Z,13.68
2022-09-30T13:46:04.925Z,15.05
2022-09-30T13:48:41.381Z,18.95
2022-09-30T13:51:14.947Z,18.63
2022-09-30T13:53:51.372Z,18.05
2022-09-30T13:56:23.092Z,13.68
2022-09-30T14:01:42.333Z,18.65
2022-09-30T14:04:31.133Z,14.15
2022-09-30T14:07:04.298Z,16.35
2022-09-30T14:09:58.767Z,14.48
2022-09-30T14:12:52.154Z,15.93
2022-09-30T14:15:49.140Z,15.23
2022-09-30T14:18:22.953Z,14.30
2022-09-30T14:21:28.218Z,16.08
2022-09-30T14:24:09.485Z,20.20
2022-09-30T14:26:36.387Z,19.75
2022-09-30T14:29:43.479Z,16.55
2022-09-30T14:32:20.789Z,16.83
2022-09-30T14:34:49.220Z,13.27
2022-09-30T14:37:31.228Z,20.83
2022-09-30T14:39:59.950Z,18.55
2022-09-30T14:42:33.345Z,18.52
2022-09-30T14:45:06.025Z,17.40
2022-09-30T14:47:44.911Z,15.80
2022-09-30T14:50:17.769Z,19.13
2022-09-30T14:52:47.073Z,19.05
2022-09-30T14:55:42.780Z,20.30
2022-09-30T14:58:22.283Z,17.77
2022-09-30T15:01:00.473Z,23.80
2022-09-30T15:03:29.165Z,20.15
2022-09-30T15:05:58.267Z,20.35
2022-09-30T15:08:25.600Z,18.77
2022-09-30T15:10:55.416Z,19.13
2022-09-30T15:13:26.321Z,18.38
2022-09-30T15:15:54.065Z,16.98
2022-09-30T15:18:28.189Z,16.33
2022-09-30T15:20:59.450Z,24.75
2022-09-30T15:23:31.294Z,26.45
2022-09-30T15:28:26.461Z,30.20
2022-09-30T15:30:58.323Z,26.20
2022-09-30T15:33:32.500Z,36.97
2022-09-30T15:36:05.981Z,24.42
2022-09-30T15:38:37.493Z,19.85
2022-09-30T15:41:08.961Z,22.87
2022-09-30T15:43:40.924Z,24.60
2022-09-30T15:46:28.863Z,23.55
2022-09-30T15:49:29.109Z,21.63
2022-09-30T15:52:20.727Z,24.30
2022-09-30T15:54:48.461Z,19.88
2022-09-30T15:57:51.538Z,19.95
2022-09-30T16:00:40.241Z,20.40
2022-09-30T16:03:08.040Z,18.85
2022-09-30T16:05:35.592Z,21.85
2022-09-30T16:08:09.828Z,21.92
2022-09-30T16:10:37.730Z,23.33
2022-09-30T16:13:07.030Z,28.17
2022-09-30T16:15:41.543Z,26.40
2022-09-30T16:18:19.986Z,24.92
2022-09-30T16:21:05.520Z,29.58
2022-09-30T16:23:38.484Z,24.42
2022-09-30T16:26:16.586Z,28.15
2022-09-30T16:28:43.856Z,21.42
2022-09-30T16:31:15.497Z,24.88
2022-09-30T16:36:11.949Z,21.63
2022-09-30T16:38:39.252Z,20.60
2022-09-30T16:41:06.704Z,19.25
2022-09-30T16:43:34.572Z,25.95
2022-09-30T16:46:02.967Z,27.08
2022-09-30T16:48:30.877Z,24.30
2022-09-30T16:51:12.045Z,24.10
2022-09-30T16:53:39.332Z,22.50
2022-09-30T16:56:19.815Z,24.17
2022-09-30T16:58:47.710Z,22.73
2022-09-30T17:01:20.019Z,28.50
2022-09-30T17:03:48.050Z,25.90
2022-09-30T17:06:18.092Z,31.00
2022-09-30T17:08:45.530Z,33.75
2022-09-30T17:11:13.265Z,34.38
2022-09-30T17:13:42.746Z,36.47
2022-09-30T17:16:10.198Z,28.10
2022-09-30T17:18:37.600Z,26.42
2022-09-30T17:21:05.338Z,28.40
2022-09-30T17:23:32.561Z,25.63
2022-09-30T17:25:59.750Z,23.35
2022-09-30T17:28:26.810Z,22.35
2022-09-30T17:30:54.624Z,28.70
2022-09-30T17:33:22.683Z,24.63
2022-09-30T17:36:00.912Z,24.58
2022-09-30T17:38:29.027Z,22.60
2022-09-30T17:41:15.040Z,22.85
2022-09-30T17:43:42.314Z,21.73
2022-09-30T17:46:09.525Z,18.25
2022-09-30T17:48:39.627Z,24.35
2022-09-30T17:51:08.332Z,24.38
2022-09-30T17:53:36.972Z,23.08
2022-09-30T17:56:14.351Z,21.13
2022-09-30T17:58:42.511Z,35.15
2022-09-30T18:01:10.556Z,22.67
2022-09-30T18:03:37.897Z,15.82
2022-09-30T18:06:07.010Z,20.25
2022-09-30T18:08:36.117Z,18.60
2022-09-30T18:11:04.496Z,18.52
2022-09-30T18:13:32.370Z,19.80
2022-09-30T18:16:03.589Z,19.30
2022-09-30T18:18:33.773Z,15.50
2022-09-30T18:21:03.567Z,15.38
2022-09-30T18:23:30.908Z,16.13
2022-09-30T18:25:58.860Z,18.45
2022-09-30T18:28:26.877Z,23.35
2022-09-30T18:30:54.230Z,14.18
2022-09-30T18:33:25.398Z,16.58
2022-09-30T18:35:52.644Z,15.32
2022-09-30T18:38:20.343Z,18.45
2022-09-30T18:40:52.084Z,15.15
2022-09-30T18:43:19.478Z,17.38
2022-09-30T18:45:54.030Z,17.15
2022-09-30T18:48:22.458Z,11.77
2022-09-30T18:50:51.822Z,11.20
2022-09-30T18:53:22.116Z,12.60
2022-09-30T18:55:51.878Z,8.32
2022-09-30T18:58:23.641Z,10.27
2022-09-30T19:00:50.888Z,8.18
2022-09-30T19:03:19.184Z,9.20
2022-09-30T19:05:46.349Z,9.35
2022-09-30T19:08:15.836Z,8.13
2022-09-30T19:10:43.077Z,7.47
2022-09-30T19:13:10.204Z,7.10
2022-09-30T19:15:38.931Z,6.88
2022-09-30T19:18:10.005Z,8.30
2022-09-30T19:20:38.386Z,7.22
2022-09-30T19:23:09.072Z,5.15
2022-09-30T19:25:38.892Z,4.47
2022-09-30T19:28:06.838Z,6.90
2022-09-30T19:30:34.064Z,4.38
2022-09-30T19:33:01.227Z,3.28
2022-09-30T19:35:38.203Z,2.88
2022-09-30T19:38:08.595Z,3.65
2022-09-30T19:40:37.625Z,3.03
2022-09-30T19:43:05.325Z,3.33
2022-09-30T19:45:33.599Z,4.95
2022-09-30T19:48:01.855Z,4.05
2022-09-30T19:50:33.126Z,4.38
2022-09-30T19:53:01.815Z,5.03
2022-09-30T19:55:29.288Z,9.77
2022-09-30T19:57:56.939Z,7.72
2022-09-30T20:00:24.357Z,9.27
2022-09-30T20:02:53.325Z,5.80
2022-09-30T20:05:21.195Z,9.85
2022-09-30T20:07:51.331Z,5.25
2022-09-30T20:10:18.923Z,5.07
2022-09-30T20:12:46.178Z,6.53
2022-09-30T20:15:31.524Z,5.63
2022-09-30T20:17:58.942Z,3.53
2022-09-30T20:20:35.371Z,5.38
2022-09-30T20:23:03.836Z,4.50
2022-09-30T20:25:31.503Z,4.15
2022-09-30T20:27:58.973Z,4.65
2022-09-30T20:30:29.992Z,8.00
2022-09-30T20:32:57.009Z,3.38
2022-09-30T20:35:24.993Z,5.43
2022-09-30T20:37:53.486Z,4.95
2022-09-30T20:40:20.918Z,3.03
2022-09-30T20:42:48.006Z,5.07
2022-09-30T20:45:15.523Z,3.65
2022-09-30T20:47:47.151Z,3.33
2022-09-30T20:50:14.237Z,3.58
2022-09-30T20:52:41.214Z,3.53
2022-09-30T20:55:09.563Z,4.15
2022-09-30T20:57:36.453Z,5.53
2022-09-30T21:00:04.649Z,7.32
2022-09-30T21:02:31.442Z,8.07
2022-09-30T21:04:58.460Z,7.75
2022-09-30T21:07:26.614Z,5.75
2022-09-30T21:09:53.555Z,6.15
2022-09-30T21:12:20.520Z,6.45
2022-09-30T21:14:47.480Z,14.50
2022-09-30T21:17:14.257Z,4.60
2022-09-30T21:19:41.278Z,5.60
2022-09-30T21:22:08.116Z,4.47
2022-09-30T21:24:35.020Z,5.18
2022-09-30T21:27:05.841Z,4.93
2022-09-30T21:29:33.001Z,6.88
2022-09-30T21:32:00.526Z,6.53
2022-09-30T21:34:28.040Z,3.53
2022-09-30T21:36:54.970Z,4.97
2022-09-30T21:39:21.803Z,6.22
2022-09-30T21:41:48.829Z,3.97
2022-09-30T21:44:16.184Z,5.30
2022-09-30T21:46:48.189Z,4.95
2022-09-30T21:49:21.027Z,7.85
2022-09-30T21:51:47.856Z,8.40
2022-09-30T21:54:15.461Z,11.75
2022-09-30T21:56:43.701Z,6.53
2022-09-30T21:59:11.958Z,6.30
2022-09-30T22:01:39.537Z,6.68
2022-09-30T22:04:06.608Z,6.20
2022-09-30T22:06:33.539Z,7.45
2022-09-30T22:09:01.543Z,4.53
2022-09-30T22:11:30.434Z,11.77
2022-09-30T22:13:59.378Z,11.18
2022-09-30T22:16:29.797Z,13.10
2022-09-30T22:19:00.192Z,5.97
2022-09-30T22:21:31.804Z,4.95
2022-09-30T22:24:01.518Z,14.15
2022-09-30T22:26:29.181Z,4.45
2022-09-30T22:28:59.451Z,6.00
2022-09-30T22:31:29.564Z,5.18
2022-09-30T22:34:31.269Z,6.65
2022-09-30T22:37:16.782Z,4.82
2022-09-30T22:39:43.606Z,7.10
2022-09-30T22:42:10.449Z,7.20
2022-09-30T22:44:37.627Z,10.90
2022-09-30T22:47:08.123Z,4.55
2022-09-30T22:49:35.234Z,5.22
2022-09-30T22:52:02.926Z,8.55
2022-09-30T22:54:30.653Z,5.20
2022-09-30T22:56:59.365Z,6.10
2022-09-30T22:59:27.077Z,7.13
2022-09-30T23:01:54.560Z,7.22
2022-09-30T23:04:22.197Z,8.98
2022-09-30T23:06:50.834Z,4.38
2022-09-30T23:09:18.389Z,5.28
2022-09-30T23:11:46.167Z,4.13
2022-09-30T23:14:13.394Z,8.60
2022-09-30T23:16:40.791Z,4.88
2022-09-30T23:19:07.834Z,4.50
2022-09-30T23:21:35.334Z,7.15
2022-09-30T23:24:02.572Z,6.47
2022-09-30T23:26:31.181Z,4.32
2022-09-30T23:28:59.892Z,8.10
2022-09-30T23:31:27.334Z,14.27
2022-09-30T23:33:57.185Z,9.65
2022-09-30T23:36:29.739Z,7.72
2022-09-30T23:39:12.691Z,4.47
2022-09-30T23:41:40.094Z,5.18
2022-09-30T23:44:09.635Z,6.22
2022-09-30T23:46:36.587Z,3.80
2022-09-30T23:49:03.511Z,4.18
2022-09-30T23:51:33.589Z,3.83
2022-09-30T23:54:02.308Z,3.13
2022-09-30T23:56:29.176Z,3.25
2022-09-30T23:58:55.942Z,8.00
